Ever Ursula — 3FCB9 — position and weather

sailwx.info

Track history (hours):
 
Tides and Currents Weather Stations Pressure Air Temp Water Temp Dewpoint Dewpoint Depression Visibility Wind Speed Wind Dir Waves Ship Positions

Ever Ursula

Last reported at 2015-Aug-29 06:33 UTC. Time now 2015-Aug-30 20:02 UTC.
Position N 38°10' W 124°50'.

Type: Cargo ship. MMSI: 357737000.

Date/timePositionNaut miles runAvg speedWind from/ knotsBaromVisibWave heightAir tempDewpointWater temp
2015-Aug-29 06:33N 38°10' W 124°50'1514.7
2015-Aug-29 05:34N 38°09' W 124°32'1514.2
2015-Aug-29 04:32N 38°09' W 124°13'1414.1
2015-Aug-29 03:33N 38°10' W 123°55'1414.4
2015-Aug-29 02:33N 38°10' W 123°37'1414.1
2015-Aug-29 01:33N 38°09' W 123°19'1414.4
2015-Aug-29 00:33N 37°58' W 123°07'1514.5
2015-Aug-28 23:33N 37°51' W 122°51'1212.1
2015-Aug-28 22:34N 37°46' W 122°37'1212.0
2015-Aug-28 21:34N 37°48' W 122°22'1 1.0
2015-Aug-28 20:33N 37°48' W 122°20'0 0.0
2015-Aug-28 19:33N 37°48' W 122°20'0 0.0
2015-Aug-28 18:33N 37°48' W 122°20'0 0.0
2015-Aug-28 17:33N 37°48' W 122°20'0 0.0
2015-Aug-28 16:33N 37°48' W 122°20'0 0.0
2015-Aug-28 15:33N 37°48' W 122°20'0 0.0
2015-Aug-28 14:33N 37°48' W 122°20'0 0.1
2015-Aug-28 13:33N 37°48' W 122°20'0 0.0
2015-Aug-28 12:33N 37°48' W 122°20'0 0.0
2015-Aug-28 11:33N 37°48' W 122°20'0 0.0
2015-Aug-28 10:33N 37°48' W 122°20'0 0.0
2015-Aug-28 09:33N 37°48' W 122°20'0 0.1
2015-Aug-28 08:33N 37°48' W 122°20'0 0.1
2015-Aug-28 07:33N 37°48' W 122°20'0 0.0
2015-Aug-28 06:34N 37°48' W 122°20'0 0.0
2015-Aug-28 05:33N 37°48' W 122°20'0 0.0
2015-Aug-28 04:33N 37°48' W 122°20'0 0.0
2015-Aug-28 03:33N 37°48' W 122°20'0 0.0
2015-Aug-28 02:33N 37°48' W 122°20'0 0.0
2015-Aug-28 01:31N 37°48' W 122°20'0 0.0
2015-Aug-28 00:31N 37°48' W 122°20'0 0.0
2015-Aug-27 23:31N 37°48' W 122°20'0 0.0
2015-Aug-27 22:31N 37°48' W 122°20'0 0.0
2015-Aug-27 21:31N 37°48' W 122°20'0 0.0
2015-Aug-27 20:31N 37°48' W 122°20'0 0.0
2015-Aug-27 19:31N 37°48' W 122°20'0 0.0
2015-Aug-27 18:31N 37°48' W 122°20'0 0.0
2015-Aug-27 17:32N 37°48' W 122°20'0 0.0
2015-Aug-27 16:32N 37°48' W 122°20'0 0.0
2015-Aug-27 15:32N 37°48' W 122°20'0 0.0
2015-Aug-27 14:32N 37°48' W 122°20'0 0.0
2015-Aug-27 13:32N 37°48' W 122°20'0 0.0
2015-Aug-27 12:32N 37°48' W 122°20'0 0.0
2015-Aug-27 11:32N 37°48' W 122°20'0 0.0
2015-Aug-27 10:32N 37°48' W 122°20'0 0.0
2015-Aug-27 09:32N 37°48' W 122°20'0 0.0
2015-Aug-27 08:32N 37°48' W 122°20'0 0.0
2015-Aug-27 07:32N 37°48' W 122°20'0 0.0
2015-Aug-27 06:32N 37°48' W 122°20'1 0.8
2015-Aug-27 05:34N 37°49' W 122°20'8 8.2
2015-Aug-27 04:33N 37°48' W 122°30'1110.9
2015-Aug-27 03:33N 37°41' W 122°40'1111.5
2015-Aug-27 02:33N 37°30' W 122°39'1414.4
2015-Aug-27 01:33N 37°15' W 122°40'1615.9
2015-Aug-27 00:33N 36°59' W 122°42'1515.3
2015-Aug-26 23:33N 36°44' W 122°44'1515.1
2015-Aug-26 22:33N 36°29' W 122°45'1414.4
2015-Aug-26 21:33N 36°16' W 122°38'1515.4
2015-Aug-26 20:33N 36°04' W 122°26'1515.3
2015-Aug-26 19:33N 35°52' W 122°15'1514.7
2015-Aug-26 18:33N 35°40' W 122°04'1615.1
2015-Aug-26 17:31N 35°28' W 121°52'1414.9
2015-Aug-26 16:33N 35°16' W 121°41'1515.1
2015-Aug-26 15:33N 35°04' W 121°30'1514.8
2015-Aug-26 14:33N 34°53' W 121°19'1414.3
2015-Aug-26 13:33N 34°41' W 121°08'1414.2
2015-Aug-26 12:33N 34°30' W 120°58'1514.6
2015-Aug-26 11:33N 34°24' W 120°42'1914.7
2015-Aug-26 10:15N 34°19' W 120°19'1115.3
2015-Aug-26 09:33N 34°16' W 120°07'1715.0
2015-Aug-26 08:27N 34°12' W 119°48'1415.1
2015-Aug-26 07:33N 34°08' W 119°32'1514.8
2015-Aug-26 06:33N 34°04' W 119°15'1414.0
2015-Aug-26 05:34N 33°57' W 119°00'1211.8
2015-Aug-26 04:34N 33°51' W 118°48'1211.8
2015-Aug-26 03:34N 33°45' W 118°36'1211.8
2015-Aug-26 02:33N 33°40' W 118°23'8 7.6
2015-Aug-26 01:34N 33°41' W 118°14'3 2.6
2015-Aug-26 00:33N 33°44' W 118°15'0 0.0
2015-Aug-25 23:33N 33°44' W 118°15'0 0.0
2015-Aug-25 22:33N 33°44' W 118°15'0 0.0
2015-Aug-25 21:33N 33°44' W 118°15'0 0.0
2015-Aug-25 20:33N 33°44' W 118°15'0 0.0
2015-Aug-25 19:33N 33°44' W 118°15'0 0.0
2015-Aug-25 18:33N 33°44' W 118°15'0 0.1
2015-Aug-25 17:33N 33°44' W 118°15'0 0.0
2015-Aug-25 16:33N 33°44' W 118°15'0 0.0
2015-Aug-25 15:33N 33°44' W 118°15'0 0.1
2015-Aug-25 14:33N 33°44' W 118°15'0 0.0
2015-Aug-25 13:33N 33°44' W 118°15'0 0.0
2015-Aug-25 12:33N 33°44' W 118°15'0 0.0
2015-Aug-25 11:33N 33°44' W 118°15'0 0.0
2015-Aug-25 10:31N 33°44' W 118°15'0 0.0
2015-Aug-25 09:31N 33°44' W 118°15'0 0.0
2015-Aug-25 08:31N 33°44' W 118°15'0 0.0
2015-Aug-25 07:31N 33°44' W 118°15'0 0.1
2015-Aug-25 06:31N 33°44' W 118°15'0 0.0
2015-Aug-25 05:31N 33°44' W 118°15'0 0.0
2015-Aug-25 04:31N 33°44' W 118°15'0 0.0
2015-Aug-25 03:31N 33°44' W 118°15'0 0.0
2015-Aug-25 02:31N 33°44' W 118°15'0 0.0
2015-Aug-25 01:31N 33°44' W 118°15'0 0.1
2015-Aug-25 00:31N 33°44' W 118°15'0 0.0
2015-Aug-24 23:31N 33°44' W 118°15'0 0.0
2015-Aug-24 22:34N 33°44' W 118°15'0 0.0
2015-Aug-24 21:33N 33°44' W 118°15'0 0.0
2015-Aug-24 20:33N 33°44' W 118°15'0 0.1
2015-Aug-24 19:32N 33°44' W 118°15'0 0.1
2015-Aug-24 18:33N 33°44' W 118°15'0 0.0
2015-Aug-24 17:34N 33°44' W 118°15'0 0.0
2015-Aug-24 16:31N 33°44' W 118°15'0 0.1
2015-Aug-24 15:34N 33°44' W 118°15'0 0.1
2015-Aug-24 14:33N 33°44' W 118°15'0 0.0
2015-Aug-24 13:31N 33°44' W 118°15'0 0.0
2015-Aug-24 12:31N 33°44' W 118°15'0 0.0
2015-Aug-24 11:31N 33°44' W 118°15'0 0.0
2015-Aug-24 10:28N 33°44' W 118°15'0 0.0
2015-Aug-24 09:31N 33°44' W 118°15'0 0.0
2015-Aug-24 08:31N 33°44' W 118°15'0 0.0
2015-Aug-24 07:31N 33°44' W 118°15'0 0.0
2015-Aug-24 06:31N 33°44' W 118°15'0 0.0
2015-Aug-24 05:31N 33°44' W 118°15'0 0.0
2015-Aug-24 04:28N 33°44' W 118°15'0 0.0
2015-Aug-24 03:28N 33°44' W 118°15'0 0.0
2015-Aug-24 02:31N 33°44' W 118°15'0 0.0
2015-Aug-24 01:31N 33°44' W 118°15'0 0.0
2015-Aug-24 00:32N 33°44' W 118°15'0 0.0
2015-Aug-23 23:33N 33°44' W 118°15'0 0.0
2015-Aug-23 22:33N 33°44' W 118°15'0 0.0
2015-Aug-23 21:33N 33°44' W 118°15'0 0.0
2015-Aug-23 20:31N 33°44' W 118°15'0 0.0
2015-Aug-23 19:31N 33°44' W 118°15'0 0.1
2015-Aug-23 18:34N 33°44' W 118°15'0 0.0
2015-Aug-23 17:29N 33°44' W 118°15'0 0.0
2015-Aug-23 16:26N 33°44' W 118°15'0 0.0
2015-Aug-23 15:32N 33°44' W 118°15'0 0.0
2015-Aug-23 14:32N 33°44' W 118°15'0 0.0
2015-Aug-23 13:11N 33°44' W 118°15'0 0.0
2015-Aug-23 12:29N 33°44' W 118°15'0 0.0
2015-Aug-23 11:33N 33°44' W 118°15'9 4.5
2015-Aug-23 09:33N 33°36' W 118°20'7 6.7
2015-Aug-23 08:33N 33°35' W 118°28'7 6.9
2015-Aug-23 07:33N 33°35' W 118°37'7 6.7
2015-Aug-23 06:33N 33°35' W 118°45'10 6.9
2015-Aug-23 05:07N 33°35' W 118°56'4 7.0
2015-Aug-23 04:33N 33°35' W 119°01'1211.9
2015-Aug-23 03:33N 33°34' W 119°15'1514.4
2015-Aug-23 02:31N 33°34' W 119°33'1414.3
2015-Aug-23 01:33N 33°33' W 119°50'1514.4
2015-Aug-23 00:29N 33°33' W 120°08'1414.6
2015-Aug-22 23:33N 33°32' W 120°25'1514.5
2015-Aug-22 22:33N 33°32' W 120°42'1514.4
2015-Aug-22 21:33N 33°32' W 120°60'1414.0
2015-Aug-22 20:33N 33°33' W 121°16'1414.2
2015-Aug-22 19:33N 33°34' W 121°33'46316.5
2015-Aug-21 15:33N 36°57' W 130°03'3919.0
2015-Aug-21 13:29N 37°20' W 130°43'2218.8
2015-Aug-21 12:17N 37°32' W 131°07'1818.8
2015-Aug-21 11:18N 37°42' W 131°26'  
Track history (hours):
 
Tides and Currents Weather Stations Pressure Air Temp Water Temp Dewpoint Dewpoint Depression Visibility Wind Speed Wind Dir Waves Ship Positions

Ever Ursula

Last reported at 2015-Aug-29 06:33 UTC. Time now 2015-Aug-30 20:02 UTC.
Position N 38°10' W 124°50'.

Type: Cargo ship. MMSI: 357737000.

Date/timePositionNaut miles runAvg speedWind from/ knotsBaromVisibWave heightAir tempDewpointWater temp
2015-Aug-29 06:33N 38°10' W 124°50'1514.7
2015-Aug-29 05:34N 38°09' W 124°32'1514.2
2015-Aug-29 04:32N 38°09' W 124°13'1414.1
2015-Aug-29 03:33N 38°10' W 123°55'1414.4
2015-Aug-29 02:33N 38°10' W 123°37'1414.1
2015-Aug-29 01:33N 38°09' W 123°19'1414.4
2015-Aug-29 00:33N 37°58' W 123°07'1514.5
2015-Aug-28 23:33N 37°51' W 122°51'1212.1
2015-Aug-28 22:34N 37°46' W 122°37'1212.0
2015-Aug-28 21:34N 37°48' W 122°22'1 1.0
2015-Aug-28 20:33N 37°48' W 122°20'0 0.0
2015-Aug-28 19:33N 37°48' W 122°20'0 0.0
2015-Aug-28 18:33N 37°48' W 122°20'0 0.0
2015-Aug-28 17:33N 37°48' W 122°20'0 0.0
2015-Aug-28 16:33N 37°48' W 122°20'0 0.0
2015-Aug-28 15:33N 37°48' W 122°20'0 0.0
2015-Aug-28 14:33N 37°48' W 122°20'0 0.1
2015-Aug-28 13:33N 37°48' W 122°20'0 0.0
2015-Aug-28 12:33N 37°48' W 122°20'0 0.0
2015-Aug-28 11:33N 37°48' W 122°20'0 0.0
2015-Aug-28 10:33N 37°48' W 122°20'0 0.0
2015-Aug-28 09:33N 37°48' W 122°20'0 0.1
2015-Aug-28 08:33N 37°48' W 122°20'0 0.1
2015-Aug-28 07:33N 37°48' W 122°20'0 0.0
2015-Aug-28 06:34N 37°48' W 122°20'0 0.0
2015-Aug-28 05:33N 37°48' W 122°20'0 0.0
2015-Aug-28 04:33N 37°48' W 122°20'0 0.0
2015-Aug-28 03:33N 37°48' W 122°20'0 0.0
2015-Aug-28 02:33N 37°48' W 122°20'0 0.0
2015-Aug-28 01:31N 37°48' W 122°20'0 0.0
2015-Aug-28 00:31N 37°48' W 122°20'0 0.0
2015-Aug-27 23:31N 37°48' W 122°20'0 0.0
2015-Aug-27 22:31N 37°48' W 122°20'0 0.0
2015-Aug-27 21:31N 37°48' W 122°20'0 0.0
2015-Aug-27 20:31N 37°48' W 122°20'0 0.0
2015-Aug-27 19:31N 37°48' W 122°20'0 0.0
2015-Aug-27 18:31N 37°48' W 122°20'0 0.0
2015-Aug-27 17:32N 37°48' W 122°20'0 0.0
2015-Aug-27 16:32N 37°48' W 122°20'0 0.0
2015-Aug-27 15:32N 37°48' W 122°20'0 0.0
2015-Aug-27 14:32N 37°48' W 122°20'0 0.0
2015-Aug-27 13:32N 37°48' W 122°20'0 0.0
2015-Aug-27 12:32N 37°48' W 122°20'0 0.0
2015-Aug-27 11:32N 37°48' W 122°20'0 0.0
2015-Aug-27 10:32N 37°48' W 122°20'0 0.0
2015-Aug-27 09:32N 37°48' W 122°20'0 0.0
2015-Aug-27 08:32N 37°48' W 122°20'0 0.0
2015-Aug-27 07:32N 37°48' W 122°20'0 0.0
2015-Aug-27 06:32N 37°48' W 122°20'1 0.8
2015-Aug-27 05:34N 37°49' W 122°20'8 8.2
2015-Aug-27 04:33N 37°48' W 122°30'1110.9
2015-Aug-27 03:33N 37°41' W 122°40'1111.5
2015-Aug-27 02:33N 37°30' W 122°39'1414.4
2015-Aug-27 01:33N 37°15' W 122°40'1615.9
2015-Aug-27 00:33N 36°59' W 122°42'1515.3
2015-Aug-26 23:33N 36°44' W 122°44'1515.1
2015-Aug-26 22:33N 36°29' W 122°45'1414.4
2015-Aug-26 21:33N 36°16' W 122°38'1515.4
2015-Aug-26 20:33N 36°04' W 122°26'1515.3
2015-Aug-26 19:33N 35°52' W 122°15'1514.7
2015-Aug-26 18:33N 35°40' W 122°04'1615.1
2015-Aug-26 17:31N 35°28' W 121°52'1414.9
2015-Aug-26 16:33N 35°16' W 121°41'1515.1
2015-Aug-26 15:33N 35°04' W 121°30'1514.8
2015-Aug-26 14:33N 34°53' W 121°19'1414.3
2015-Aug-26 13:33N 34°41' W 121°08'1414.2
2015-Aug-26 12:33N 34°30' W 120°58'1514.6
2015-Aug-26 11:33N 34°24' W 120°42'1914.7
2015-Aug-26 10:15N 34°19' W 120°19'1115.3
2015-Aug-26 09:33N 34°16' W 120°07'1715.0
2015-Aug-26 08:27N 34°12' W 119°48'1415.1
2015-Aug-26 07:33N 34°08' W 119°32'1514.8
2015-Aug-26 06:33N 34°04' W 119°15'1414.0
2015-Aug-26 05:34N 33°57' W 119°00'1211.8
2015-Aug-26 04:34N 33°51' W 118°48'1211.8
2015-Aug-26 03:34N 33°45' W 118°36'1211.8
2015-Aug-26 02:33N 33°40' W 118°23'8 7.6
2015-Aug-26 01:34N 33°41' W 118°14'3 2.6
2015-Aug-26 00:33N 33°44' W 118°15'0 0.0
2015-Aug-25 23:33N 33°44' W 118°15'0 0.0
2015-Aug-25 22:33N 33°44' W 118°15'0 0.0
2015-Aug-25 21:33N 33°44' W 118°15'0 0.0
2015-Aug-25 20:33N 33°44' W 118°15'0 0.0
2015-Aug-25 19:33N 33°44' W 118°15'0 0.0
2015-Aug-25 18:33N 33°44' W 118°15'0 0.1
2015-Aug-25 17:33N 33°44' W 118°15'0 0.0
2015-Aug-25 16:33N 33°44' W 118°15'0 0.0
2015-Aug-25 15:33N 33°44' W 118°15'0 0.1
2015-Aug-25 14:33N 33°44' W 118°15'0 0.0
2015-Aug-25 13:33N 33°44' W 118°15'0 0.0
2015-Aug-25 12:33N 33°44' W 118°15'0 0.0
2015-Aug-25 11:33N 33°44' W 118°15'0 0.0
2015-Aug-25 10:31N 33°44' W 118°15'0 0.0
2015-Aug-25 09:31N 33°44' W 118°15'0 0.0
2015-Aug-25 08:31N 33°44' W 118°15'0 0.0
2015-Aug-25 07:31N 33°44' W 118°15'0 0.1
2015-Aug-25 06:31N 33°44' W 118°15'0 0.0
2015-Aug-25 05:31N 33°44' W 118°15'0 0.0
2015-Aug-25 04:31N 33°44' W 118°15'0 0.0
2015-Aug-25 03:31N 33°44' W 118°15'0 0.0
2015-Aug-25 02:31N 33°44' W 118°15'0 0.0
2015-Aug-25 01:31N 33°44' W 118°15'0 0.1
2015-Aug-25 00:31N 33°44' W 118°15'0 0.0
2015-Aug-24 23:31N 33°44' W 118°15'0 0.0
2015-Aug-24 22:34N 33°44' W 118°15'0 0.0
2015-Aug-24 21:33N 33°44' W 118°15'0 0.0
2015-Aug-24 20:33N 33°44' W 118°15'0 0.1
2015-Aug-24 19:32N 33°44' W 118°15'0 0.1
2015-Aug-24 18:33N 33°44' W 118°15'0 0.0
2015-Aug-24 17:34N 33°44' W 118°15'0 0.0
2015-Aug-24 16:31N 33°44' W 118°15'0 0.1
2015-Aug-24 15:34N 33°44' W 118°15'0 0.1
2015-Aug-24 14:33N 33°44' W 118°15'0 0.0
2015-Aug-24 13:31N 33°44' W 118°15'0 0.0
2015-Aug-24 12:31N 33°44' W 118°15'0 0.0
2015-Aug-24 11:31N 33°44' W 118°15'0 0.0
2015-Aug-24 10:28N 33°44' W 118°15'0 0.0
2015-Aug-24 09:31N 33°44' W 118°15'0 0.0
2015-Aug-24 08:31N 33°44' W 118°15'0 0.0
2015-Aug-24 07:31N 33°44' W 118°15'0 0.0
2015-Aug-24 06:31N 33°44' W 118°15'0 0.0
2015-Aug-24 05:31N 33°44' W 118°15'0 0.0
2015-Aug-24 04:28N 33°44' W 118°15'0 0.0
2015-Aug-24 03:28N 33°44' W 118°15'0 0.0
2015-Aug-24 02:31N 33°44' W 118°15'0 0.0
2015-Aug-24 01:31N 33°44' W 118°15'0 0.0
2015-Aug-24 00:32N 33°44' W 118°15'0 0.0
2015-Aug-23 23:33N 33°44' W 118°15'0 0.0
2015-Aug-23 22:33N 33°44' W 118°15'0 0.0
2015-Aug-23 21:33N 33°44' W 118°15'0 0.0
2015-Aug-23 20:31N 33°44' W 118°15'0 0.0
2015-Aug-23 19:31N 33°44' W 118°15'0 0.1
2015-Aug-23 18:34N 33°44' W 118°15'0 0.0
2015-Aug-23 17:29N 33°44' W 118°15'0 0.0
2015-Aug-23 16:26N 33°44' W 118°15'0 0.0
2015-Aug-23 15:32N 33°44' W 118°15'0 0.0
2015-Aug-23 14:32N 33°44' W 118°15'0 0.0
2015-Aug-23 13:11N 33°44' W 118°15'0 0.0
2015-Aug-23 12:29N 33°44' W 118°15'0 0.0
2015-Aug-23 11:33N 33°44' W 118°15'9 4.5
2015-Aug-23 09:33N 33°36' W 118°20'7 6.7
2015-Aug-23 08:33N 33°35' W 118°28'7 6.9
2015-Aug-23 07:33N 33°35' W 118°37'7 6.7
2015-Aug-23 06:33N 33°35' W 118°45'10 6.9
2015-Aug-23 05:07N 33°35' W 118°56'4 7.0
2015-Aug-23 04:33N 33°35' W 119°01'1211.9
2015-Aug-23 03:33N 33°34' W 119°15'1514.4
2015-Aug-23 02:31N 33°34' W 119°33'1414.3
2015-Aug-23 01:33N 33°33' W 119°50'1514.4
2015-Aug-23 00:29N 33°33' W 120°08'1414.6
2015-Aug-22 23:33N 33°32' W 120°25'1514.5
2015-Aug-22 22:33N 33°32' W 120°42'1514.4
2015-Aug-22 21:33N 33°32' W 120°60'1414.0
2015-Aug-22 20:33N 33°33' W 121°16'1414.2
2015-Aug-22 19:33N 33°34' W 121°33'46316.5
2015-Aug-21 15:33N 36°57' W 130°03'3919.0
2015-Aug-21 13:29N 37°20' W 130°43'2218.8
2015-Aug-21 12:17N 37°32' W 131°07'1818.8
2015-Aug-21 11:18N 37°42' W 131°26'  

Dump ship's entire track history